sensor_id;sensor_type;location;lat;lon;timestamp;temperature;humidity
67054;SHT31;53960;51.826;5.850;2022-12-11T00:00:42;0.75;99.99
67054;SHT31;53960;51.826;5.850;2022-12-11T00:03:07;0.72;99.99
67054;SHT31;53960;51.826;5.850;2022-12-11T00:05:33;0.73;99.99
67054;SHT31;53960;51.826;5.850;2022-12-11T00:07:59;0.75;99.99
67054;SHT31;53960;51.826;5.850;2022-12-11T00:10:24;0.72;99.99
67054;SHT31;53960;51.826;5.850;2022-12-11T00:12:50;0.77;99.99
67054;SHT31;53960;51.826;5.850;2022-12-11T00:15:15;0.76;99.99
67054;SHT31;53960;51.826;5.850;2022-12-11T00:17:41;0.76;99.84
67054;SHT31;53960;51.826;5.850;2022-12-11T00:20:06;0.79;99.96
67054;SHT31;53960;51.826;5.850;2022-12-11T00:22:32;0.77;99.99
67054;SHT31;53960;51.826;5.850;2022-12-11T00:24:58;0.77;99.99
67054;SHT31;53960;51.826;5.850;2022-12-11T00:27:23;0.77;99.94
67054;SHT31;53960;51.826;5.850;2022-12-11T00:29:49;0.75;99.91
67054;SHT31;53960;51.826;5.850;2022-12-11T00:32:14;0.76;99.91
67054;SHT31;53960;51.826;5.850;2022-12-11T00:34:39;0.77;99.91
67054;SHT31;53960;51.826;5.850;2022-12-11T00:37:05;0.82;99.87
67054;SHT31;53960;51.826;5.850;2022-12-11T00:39:30;0.79;99.85
67054;SHT31;53960;51.826;5.850;2022-12-11T00:41:55;0.86;99.92
67054;SHT31;53960;51.826;5.850;2022-12-11T00:44:22;0.80;99.92
67054;SHT31;53960;51.826;5.850;2022-12-11T00:46:47;0.87;99.68
67054;SHT31;53960;51.826;5.850;2022-12-11T00:49:13;0.86;99.43
67054;SHT31;53960;51.826;5.850;2022-12-11T00:51:38;0.87;99.47
67054;SHT31;53960;51.826;5.850;2022-12-11T00:54:04;0.89;99.46
67054;SHT31;53960;51.826;5.850;2022-12-11T00:56:30;0.90;99.59
67054;SHT31;53960;51.826;5.850;2022-12-11T00:58:55;0.86;99.64
67054;SHT31;53960;51.826;5.850;2022-12-11T01:01:22;0.83;99.62
67054;SHT31;53960;51.826;5.850;2022-12-11T01:03:49;0.79;99.93
67054;SHT31;53960;51.826;5.850;2022-12-11T01:06:16;0.79;99.99
67054;SHT31;53960;51.826;5.850;2022-12-11T01:08:43;0.79;99.99
67054;SHT31;53960;51.826;5.850;2022-12-11T01:11:11;0.80;99.99
67054;SHT31;53960;51.826;5.850;2022-12-11T01:13:37;0.77;99.99
67054;SHT31;53960;51.826;5.850;2022-12-11T01:16:11;0.77;99.99
67054;SHT31;53960;51.826;5.850;2022-12-11T01:18:37;0.75;99.99
67054;SHT31;53960;51.826;5.850;2022-12-11T01:21:11;0.76;99.99
67054;SHT31;53960;51.826;5.850;2022-12-11T01:23:37;0.77;99.99
67054;SHT31;53960;51.826;5.850;2022-12-11T01:26:08;0.80;99.99
67054;SHT31;53960;51.826;5.850;2022-12-11T01:28:33;0.77;99.99
67054;SHT31;53960;51.826;5.850;2022-12-11T01:30:59;0.76;99.99
67054;SHT31;53960;51.826;5.850;2022-12-11T01:33:24;0.76;99.99
67054;SHT31;53960;51.826;5.850;2022-12-11T01:35:50;0.82;99.99
67054;SHT31;53960;51.826;5.850;2022-12-11T01:38:15;0.82;99.99
67054;SHT31;53960;51.826;5.850;2022-12-11T01:40:48;0.79;99.99
67054;SHT31;53960;51.826;5.850;2022-12-11T01:43:13;0.77;99.99
67054;SHT31;53960;51.826;5.850;2022-12-11T01:45:41;0.79;99.99
67054;SHT31;53960;51.826;5.850;2022-12-11T01:48:12;0.76;99.99
67054;SHT31;53960;51.826;5.850;2022-12-11T01:50:45;0.75;99.99
67054;SHT31;53960;51.826;5.850;2022-12-11T01:53:17;0.76;99.99
67054;SHT31;53960;51.826;5.850;2022-12-11T01:55:45;0.76;99.99
67054;SHT31;53960;51.826;5.850;2022-12-11T01:58:11;0.75;99.99
67054;SHT31;53960;51.826;5.850;2022-12-11T02:00:37;0.75;99.99
67054;SHT31;53960;51.826;5.850;2022-12-11T02:03:02;0.77;99.99
67054;SHT31;53960;51.826;5.850;2022-12-11T02:05:27;0.79;99.99
67054;SHT31;53960;51.826;5.850;2022-12-11T02:07:56;0.80;99.99
67054;SHT31;53960;51.826;5.850;2022-12-11T02:10:30;0.80;99.99
67054;SHT31;53960;51.826;5.850;2022-12-11T02:13:05;0.79;99.99
67054;SHT31;53960;51.826;5.850;2022-12-11T02:15:35;0.80;99.99
67054;SHT31;53960;51.826;5.850;2022-12-11T02:23:46;0.83;99.99
67054;SHT31;53960;51.826;5.850;2022-12-11T02:26:38;0.86;99.99
67054;SHT31;53960;51.826;5.850;2022-12-11T02:29:12;0.86;99.99
67054;SHT31;53960;51.826;5.850;2022-12-11T02:31:57;0.82;99.99
67054;SHT31;53960;51.826;5.850;2022-12-11T02:34:41;0.87;99.99
67054;SHT31;53960;51.826;5.850;2022-12-11T02:37:11;0.90;99.99
67054;SHT31;53960;51.826;5.850;2022-12-11T02:39:40;0.90;99.99
67054;SHT31;53960;51.826;5.850;2022-12-11T02:42:08;0.93;99.99
67054;SHT31;53960;51.826;5.850;2022-12-11T02:44:36;0.93;99.99
67054;SHT31;53960;51.826;5.850;2022-12-11T02:47:03;0.90;99.99
67054;SHT31;53960;51.826;5.850;2022-12-11T02:49:31;0.90;99.99
67054;SHT31;53960;51.826;5.850;2022-12-11T02:51:59;0.89;99.99
67054;SHT31;53960;51.826;5.850;2022-12-11T02:54:28;0.90;99.99
67054;SHT31;53960;51.826;5.850;2022-12-11T02:57:09;0.90;99.99
67054;SHT31;53960;51.826;5.850;2022-12-11T02:59:38;0.90;99.99
67054;SHT31;53960;51.826;5.850;2022-12-11T03:02:04;0.89;99.99
67054;SHT31;53960;51.826;5.850;2022-12-11T03:04:30;0.90;99.99
67054;SHT31;53960;51.826;5.850;2022-12-11T03:07:00;0.94;99.99
67054;SHT31;53960;51.826;5.850;2022-12-11T03:09:28;0.96;99.99
67054;SHT31;53960;51.826;5.850;2022-12-11T03:11:53;0.94;99.99
67054;SHT31;53960;51.826;5.850;2022-12-11T03:14:19;0.96;99.99
67054;SHT31;53960;51.826;5.850;2022-12-11T03:17:04;1.00;99.99
67054;SHT31;53960;51.826;5.850;2022-12-11T03:19:36;0.93;99.99
67054;SHT31;53960;51.826;5.850;2022-12-11T03:22:20;0.94;99.99
67054;SHT31;53960;51.826;5.850;2022-12-11T03:30:15;1.00;99.99
67054;SHT31;53960;51.826;5.850;2022-12-11T03:32:49;1.01;99.99
67054;SHT31;53960;51.826;5.850;2022-12-11T03:35:32;1.01;99.99
67054;SHT31;53960;51.826;5.850;2022-12-11T03:38:11;1.03;99.97
67054;SHT31;53960;51.826;5.850;2022-12-11T03:40:39;1.00;99.69
67054;SHT31;53960;51.826;5.850;2022-12-11T03:43:06;1.03;99.66
67054;SHT31;53960;51.826;5.850;2022-12-11T03:45:33;1.01;99.53
67054;SHT31;53960;51.826;5.850;2022-12-11T03:48:01;1.04;99.82
67054;SHT31;53960;51.826;5.850;2022-12-11T03:50:29;1.08;99.92
67054;SHT31;53960;51.826;5.850;2022-12-11T03:52:56;1.08;99.84
67054;SHT31;53960;51.826;5.850;2022-12-11T03:55:22;1.11;99.80
67054;SHT31;53960;51.826;5.850;2022-12-11T03:57:49;1.11;99.73
67054;SHT31;53960;51.826;5.850;2022-12-11T04:00:16;1.14;99.64
67054;SHT31;53960;51.826;5.850;2022-12-11T04:02:43;1.14;99.48
67054;SHT31;53960;51.826;5.850;2022-12-11T04:05:09;1.16;99.49
67054;SHT31;53960;51.826;5.850;2022-12-11T04:07:35;1.13;99.14
67054;SHT31;53960;51.826;5.850;2022-12-11T04:10:01;1.16;99.36
67054;SHT31;53960;51.826;5.850;2022-12-11T04:12:27;1.14;99.26
67054;SHT31;53960;51.826;5.850;2022-12-11T04:14:52;1.17;99.25
67054;SHT31;53960;51.826;5.850;2022-12-11T04:17:34;1.16;99.31
67054;SHT31;53960;51.826;5.850;2022-12-11T04:20:19;1.16;99.23
67054;SHT31;53960;51.826;5.850;2022-12-11T04:23:11;1.20;99.22
67054;SHT31;53960;51.826;5.850;2022-12-11T04:26:14;1.16;99.12
67054;SHT31;53960;51.826;5.850;2022-12-11T04:28:40;1.20;99.05
67054;SHT31;53960;51.826;5.850;2022-12-11T04:31:05;1.20;99.07
67054;SHT31;53960;51.826;5.850;2022-12-11T04:33:34;1.24;99.16
67054;SHT31;53960;51.826;5.850;2022-12-11T04:36:00;1.20;99.07
67054;SHT31;53960;51.826;5.850;2022-12-11T04:38:25;1.20;99.11
67054;SHT31;53960;51.826;5.850;2022-12-11T04:41:01;1.24;99.00
67054;SHT31;53960;51.826;5.850;2022-12-11T04:43:28;1.23;99.07
67054;SHT31;53960;51.826;5.850;2022-12-11T04:46:06;1.19;98.93
67054;SHT31;53960;51.826;5.850;2022-12-11T04:48:33;1.21;98.81
67054;SHT31;53960;51.826;5.850;2022-12-11T04:50:58;1.17;98.79
67054;SHT31;53960;51.826;5.850;2022-12-11T04:53:24;1.27;99.11
67054;SHT31;53960;51.826;5.850;2022-12-11T04:55:50;1.26;98.82
67054;SHT31;53960;51.826;5.850;2022-12-11T04:58:15;1.24;98.80
67054;SHT31;53960;51.826;5.850;2022-12-11T05:00:41;1.26;98.63
67054;SHT31;53960;51.826;5.850;2022-12-11T05:03:06;1.21;98.57
67054;SHT31;53960;51.826;5.850;2022-12-11T05:05:32;1.23;98.66
67054;SHT31;53960;51.826;5.850;2022-12-11T05:07:57;1.27;98.57
67054;SHT31;53960;51.826;5.850;2022-12-11T05:10:22;1.27;98.90
67054;SHT31;53960;51.826;5.850;2022-12-11T05:12:48;1.26;98.56
67054;SHT31;53960;51.826;5.850;2022-12-11T05:15:13;1.26;98.52
67054;SHT31;53960;51.826;5.850;2022-12-11T05:17:38;1.24;98.27
67054;SHT31;53960;51.826;5.850;2022-12-11T05:20:04;1.21;98.67
67054;SHT31;53960;51.826;5.850;2022-12-11T05:22:30;1.26;98.70
67054;SHT31;53960;51.826;5.850;2022-12-11T05:24:56;1.24;98.49
67054;SHT31;53960;51.826;5.850;2022-12-11T05:27:21;1.23;98.38
67054;SHT31;53960;51.826;5.850;2022-12-11T05:29:46;1.23;98.44
67054;SHT31;53960;51.826;5.850;2022-12-11T05:32:12;1.21;98.54
67054;SHT31;53960;51.826;5.850;2022-12-11T05:34:37;1.27;98.28
67054;SHT31;53960;51.826;5.850;2022-12-11T05:37:02;1.21;97.67
67054;SHT31;53960;51.826;5.850;2022-12-11T05:39:28;1.26;98.05
67054;SHT31;53960;51.826;5.850;2022-12-11T05:41:53;1.23;97.48
67054;SHT31;53960;51.826;5.850;2022-12-11T05:44:18;1.24;97.59
67054;SHT31;53960;51.826;5.850;2022-12-11T05:46:44;1.27;97.36
67054;SHT31;53960;51.826;5.850;2022-12-11T05:49:10;1.27;97.62
67054;SHT31;53960;51.826;5.850;2022-12-11T05:51:35;1.27;97.61
67054;SHT31;53960;51.826;5.850;2022-12-11T05:54:01;1.28;97.61
67054;SHT31;53960;51.826;5.850;2022-12-11T05:56:31;1.31;97.76
67054;SHT31;53960;51.826;5.850;2022-12-11T05:58:58;1.26;97.73
67054;SHT31;53960;51.826;5.850;2022-12-11T06:01:27;1.27;97.71
67054;SHT31;53960;51.826;5.850;2022-12-11T06:03:53;1.26;97.30
67054;SHT31;53960;51.826;5.850;2022-12-11T06:06:19;1.23;97.35
67054;SHT31;53960;51.826;5.850;2022-12-11T06:08:44;1.24;97.44
67054;SHT31;53960;51.826;5.850;2022-12-11T06:11:13;1.21;97.36
67054;SHT31;53960;51.826;5.850;2022-12-11T06:13:38;1.19;97.12
67054;SHT31;53960;51.826;5.850;2022-12-11T06:16:05;1.21;96.88
67054;SHT31;53960;51.826;5.850;2022-12-11T06:18:31;1.23;96.92
67054;SHT31;53960;51.826;5.850;2022-12-11T06:20:59;1.21;96.42
67054;SHT31;53960;51.826;5.850;2022-12-11T06:23:24;1.20;95.68
67054;SHT31;53960;51.826;5.850;2022-12-11T06:25:50;1.16;95.59
67054;SHT31;53960;51.826;5.850;2022-12-11T06:28:15;1.17;95.97
67054;SHT31;53960;51.826;5.850;2022-12-11T06:30:41;1.16;96.29
67054;SHT31;53960;51.826;5.850;2022-12-11T06:33:06;1.20;96.04
67054;SHT31;53960;51.826;5.850;2022-12-11T06:35:32;1.21;95.82
67054;SHT31;53960;51.826;5.850;2022-12-11T06:37:58;1.14;95.47
67054;SHT31;53960;51.826;5.850;2022-12-11T06:40:23;1.17;95.03
67054;SHT31;53960;51.826;5.850;2022-12-11T06:42:48;1.13;95.40
67054;SHT31;53960;51.826;5.850;2022-12-11T06:45:14;1.11;95.42
67054;SHT31;53960;51.826;5.850;2022-12-11T06:47:39;1.14;95.62
67054;SHT31;53960;51.826;5.850;2022-12-11T06:50:05;1.11;95.78
67054;SHT31;53960;51.826;5.850;2022-12-11T06:52:30;1.14;95.79
67054;SHT31;53960;51.826;5.850;2022-12-11T06:54:56;1.16;96.22
67054;SHT31;53960;51.826;5.850;2022-12-11T06:57:21;1.17;95.63
67054;SHT31;53960;51.826;5.850;2022-12-11T06:59:47;1.14;95.67
67054;SHT31;53960;51.826;5.850;2022-12-11T07:02:14;1.20;95.93
67054;SHT31;53960;51.826;5.850;2022-12-11T07:04:40;1.14;95.28
67054;SHT31;53960;51.826;5.850;2022-12-11T07:07:06;1.16;95.16
67054;SHT31;53960;51.826;5.850;2022-12-11T07:09:33;1.17;96.08
67054;SHT31;53960;51.826;5.850;2022-12-11T07:11:58;1.17;96.50
67054;SHT31;53960;51.826;5.850;2022-12-11T07:14:24;1.19;96.02
67054;SHT31;53960;51.826;5.850;2022-12-11T07:16:49;1.19;96.19
67054;SHT31;53960;51.826;5.850;2022-12-11T07:19:14;1.21;96.12
67054;SHT31;53960;51.826;5.850;2022-12-11T07:21:40;1.20;95.55
67054;SHT31;53960;51.826;5.850;2022-12-11T07:24:06;1.16;95.82
67054;SHT31;53960;51.826;5.850;2022-12-11T07:26:32;1.16;95.68
67054;SHT31;53960;51.826;5.850;2022-12-11T07:28:58;1.16;95.24
67054;SHT31;53960;51.826;5.850;2022-12-11T07:31:25;1.14;95.62
67054;SHT31;53960;51.826;5.850;2022-12-11T07:34:02;1.17;95.40
67054;SHT31;53960;51.826;5.850;2022-12-11T07:36:29;1.19;95.73
67054;SHT31;53960;51.826;5.850;2022-12-11T07:38:54;1.17;95.67
67054;SHT31;53960;51.826;5.850;2022-12-11T07:41:21;1.13;95.47
67054;SHT31;53960;51.826;5.850;2022-12-11T07:43:47;1.19;95.36
67054;SHT31;53960;51.826;5.850;2022-12-11T07:46:16;1.19;94.45
67054;SHT31;53960;51.826;5.850;2022-12-11T07:48:43;1.14;94.05
67054;SHT31;53960;51.826;5.850;2022-12-11T07:51:15;1.19;93.89
67054;SHT31;53960;51.826;5.850;2022-12-11T07:53:48;1.16;94.08
67054;SHT31;53960;51.826;5.850;2022-12-11T07:56:14;1.20;94.02
67054;SHT31;53960;51.826;5.850;2022-12-11T07:58:40;1.13;93.34
67054;SHT31;53960;51.826;5.850;2022-12-11T08:01:13;1.10;93.96
67054;SHT31;53960;51.826;5.850;2022-12-11T08:03:40;1.11;93.84
67054;SHT31;53960;51.826;5.850;2022-12-11T08:06:05;1.10;94.11
67054;SHT31;53960;51.826;5.850;2022-12-11T08:08:31;1.08;94.97
67054;SHT31;53960;51.826;5.850;2022-12-11T08:11:00;1.13;94.72
67054;SHT31;53960;51.826;5.850;2022-12-11T08:13:25;1.11;94.41
67054;SHT31;53960;51.826;5.850;2022-12-11T08:15:51;1.16;94.36
67054;SHT31;53960;51.826;5.850;2022-12-11T08:18:16;1.20;94.50
67054;SHT31;53960;51.826;5.850;2022-12-11T08:20:42;1.19;94.96
67054;SHT31;53960;51.826;5.850;2022-12-11T08:23:07;1.19;95.22
67054;SHT31;53960;51.826;5.850;2022-12-11T08:25:32;1.20;95.78
67054;SHT31;53960;51.826;5.850;2022-12-11T08:27:58;1.19;95.83
67054;SHT31;53960;51.826;5.850;2022-12-11T08:30:23;1.14;95.50
67054;SHT31;53960;51.826;5.850;2022-12-11T08:32:48;1.20;95.65
67054;SHT31;53960;51.826;5.850;2022-12-11T08:35:14;1.20;95.70
67054;SHT31;53960;51.826;5.850;2022-12-11T08:37:39;1.20;95.82
67054;SHT31;53960;51.826;5.850;2022-12-11T08:40:05;1.21;95.69
67054;SHT31;53960;51.826;5.850;2022-12-11T08:42:31;1.21;95.08
67054;SHT31;53960;51.826;5.850;2022-12-11T08:44:56;1.24;95.19
67054;SHT31;53960;51.826;5.850;2022-12-11T08:47:21;1.30;95.16
67054;SHT31;53960;51.826;5.850;2022-12-11T08:49:47;1.27;95.65
67054;SHT31;53960;51.826;5.850;2022-12-11T08:52:12;1.27;95.24
67054;SHT31;53960;51.826;5.850;2022-12-11T08:54:37;1.31;94.77
67054;SHT31;53960;51.826;5.850;2022-12-11T08:57:03;1.35;95.29
67054;SHT31;53960;51.826;5.850;2022-12-11T08:59:28;1.37;94.86
67054;SHT31;53960;51.826;5.850;2022-12-11T09:01:54;1.38;94.88
67054;SHT31;53960;51.826;5.850;2022-12-11T09:04:20;1.34;94.81
67054;SHT31;53960;51.826;5.850;2022-12-11T09:06:45;1.34;94.94
67054;SHT31;53960;51.826;5.850;2022-12-11T09:09:11;1.32;94.79
67054;SHT31;53960;51.826;5.850;2022-12-11T09:11:37;1.38;95.03
67054;SHT31;53960;51.826;5.850;2022-12-11T09:14:03;1.38;94.29
67054;SHT31;53960;51.826;5.850;2022-12-11T09:16:29;1.40;94.08
67054;SHT31;53960;51.826;5.850;2022-12-11T09:18:57;1.38;94.40
67054;SHT31;53960;51.826;5.850;2022-12-11T09:21:24;1.40;94.36
67054;SHT31;53960;51.826;5.850;2022-12-11T09:23:58;1.41;94.46
67054;SHT31;53960;51.826;5.850;2022-12-11T09:26:24;1.37;94.75
67054;SHT31;53960;51.826;5.850;2022-12-11T09:28:50;1.38;94.27
67054;SHT31;53960;51.826;5.850;2022-12-11T09:31:20;1.41;94.49
67054;SHT31;53960;51.826;5.850;2022-12-11T09:33:48;1.42;94.02
67054;SHT31;53960;51.826;5.850;2022-12-11T09:36:14;1.42;94.53
67054;SHT31;53960;51.826;5.850;2022-12-11T09:38:40;1.45;93.94
67054;SHT31;53960;51.826;5.850;2022-12-11T09:46:38;1.51;93.43
67054;SHT31;53960;51.826;5.850;2022-12-11T09:49:17;1.49;92.85
67054;SHT31;53960;51.826;5.850;2022-12-11T09:51:50;1.48;93.27
67054;SHT31;53960;51.826;5.850;2022-12-11T09:54:16;1.49;93.45
67054;SHT31;53960;51.826;5.850;2022-12-11T09:56:49;1.55;94.05
67054;SHT31;53960;51.826;5.850;2022-12-11T09:59:47;1.55;93.97
67054;SHT31;53960;51.826;5.850;2022-12-11T10:05:09;1.63;93.56
67054;SHT31;53960;51.826;5.850;2022-12-11T10:10:42;1.63;94.13
67054;SHT31;53960;51.826;5.850;2022-12-11T10:13:40;1.59;93.88
67054;SHT31;53960;51.826;5.850;2022-12-11T10:16:22;1.63;93.73
67054;SHT31;53960;51.826;5.850;2022-12-11T10:18:50;1.59;93.84
67054;SHT31;53960;51.826;5.850;2022-12-11T10:21:17;1.63;93.80
67054;SHT31;53960;51.826;5.850;2022-12-11T10:23:45;1.59;94.08
67054;SHT31;53960;51.826;5.850;2022-12-11T10:26:17;1.62;94.17
67054;SHT31;53960;51.826;5.850;2022-12-11T10:28:43;1.56;94.32
67054;SHT31;53960;51.826;5.850;2022-12-11T10:31:16;1.61;94.59
67054;SHT31;53960;51.826;5.850;2022-12-11T10:34:11;1.62;94.13
67054;SHT31;53960;51.826;5.850;2022-12-11T10:36:39;1.62;93.89
67054;SHT31;53960;51.826;5.850;2022-12-11T10:39:16;1.58;93.93
67054;SHT31;53960;51.826;5.850;2022-12-11T10:41:46;1.56;94.10
67054;SHT31;53960;51.826;5.850;2022-12-11T10:44:19;1.55;94.29
67054;SHT31;53960;51.826;5.850;2022-12-11T10:46:46;1.59;93.58
67054;SHT31;53960;51.826;5.850;2022-12-11T10:49:26;1.54;93.90
67054;SHT31;53960;51.826;5.850;2022-12-11T10:51:53;1.59;93.63
67054;SHT31;53960;51.826;5.850;2022-12-11T10:54:53;1.61;93.51
67054;SHT31;53960;51.826;5.850;2022-12-11T10:57:26;1.66;93.03
67054;SHT31;53960;51.826;5.850;2022-12-11T10:59:52;1.66;92.72
67054;SHT31;53960;51.826;5.850;2022-12-11T11:02:24;1.72;92.26
67054;SHT31;53960;51.826;5.850;2022-12-11T11:04:52;1.66;91.91
67054;SHT31;53960;51.826;5.850;2022-12-11T11:07:23;1.65;91.47
67054;SHT31;53960;51.826;5.850;2022-12-11T11:09:50;1.58;91.80
67054;SHT31;53960;51.826;5.850;2022-12-11T11:12:26;1.56;92.62
67054;SHT31;53960;51.826;5.850;2022-12-11T11:15:00;1.61;92.49
67054;SHT31;53960;51.826;5.850;2022-12-11T11:17:25;1.63;92.75
67054;SHT31;53960;51.826;5.850;2022-12-11T11:19:51;1.66;92.09
67054;SHT31;53960;51.826;5.850;2022-12-11T11:22:18;1.61;92.16
67054;SHT31;53960;51.826;5.850;2022-12-11T11:24:55;1.56;92.67
67054;SHT31;53960;51.826;5.850;2022-12-11T11:27:29;1.66;93.02
67054;SHT31;53960;51.826;5.850;2022-12-11T11:29:59;1.66;93.34
67054;SHT31;53960;51.826;5.850;2022-12-11T11:32:34;1.68;93.58
67054;SHT31;53960;51.826;5.850;2022-12-11T11:35:14;1.68;93.33
67054;SHT31;53960;51.826;5.850;2022-12-11T11:37:45;1.65;93.84
67054;SHT31;53960;51.826;5.850;2022-12-11T11:40:38;1.69;92.37
67054;SHT31;53960;51.826;5.850;2022-12-11T11:49:20;1.66;93.34
67054;SHT31;53960;51.826;5.850;2022-12-11T11:54:48;1.66;93.75
67054;SHT31;53960;51.826;5.850;2022-12-11T12:00:00;1.72;93.92
67054;SHT31;53960;51.826;5.850;2022-12-11T12:02:34;1.69;93.32
67054;SHT31;53960;51.826;5.850;2022-12-11T12:05:01;1.72;93.57
67054;SHT31;53960;51.826;5.850;2022-12-11T12:07:36;1.71;93.34
67054;SHT31;53960;51.826;5.850;2022-12-11T12:10:18;1.68;94.15
67054;SHT31;53960;51.826;5.850;2022-12-11T12:13:05;1.71;93.32
67054;SHT31;53960;51.826;5.850;2022-12-11T12:18:14;1.69;93.92
67054;SHT31;53960;51.826;5.850;2022-12-11T12:21:07;1.72;93.55
67054;SHT31;53960;51.826;5.850;2022-12-11T12:24:13;1.63;93.56
67054;SHT31;53960;51.826;5.850;2022-12-11T12:26:48;1.66;93.45
67054;SHT31;53960;51.826;5.850;2022-12-11T12:29:43;1.65;94.45
67054;SHT31;53960;51.826;5.850;2022-12-11T12:32:41;1.61;93.67
67054;SHT31;53960;51.826;5.850;2022-12-11T12:38:13;1.61;93.75
67054;SHT31;53960;51.826;5.850;2022-12-11T12:41:07;1.62;93.49
67054;SHT31;53960;51.826;5.850;2022-12-11T12:46:31;1.66;94.00
67054;SHT31;53960;51.826;5.850;2022-12-11T12:49:01;1.69;93.10
67054;SHT31;53960;51.826;5.850;2022-12-11T12:51:28;1.68;94.06
67054;SHT31;53960;51.826;5.850;2022-12-11T12:53:57;1.73;94.06
67054;SHT31;53960;51.826;5.850;2022-12-11T12:56:23;1.68;94.41
67054;SHT31;53960;51.826;5.850;2022-12-11T12:58:50;1.71;94.27
67054;SHT31;53960;51.826;5.850;2022-12-11T13:01:24;1.71;94.04
67054;SHT31;53960;51.826;5.850;2022-12-11T13:03:59;1.65;93.96
67054;SHT31;53960;51.826;5.850;2022-12-11T13:06:36;1.63;94.05
67054;SHT31;53960;51.826;5.850;2022-12-11T13:09:23;1.66;93.81
67054;SHT31;53960;51.826;5.850;2022-12-11T13:11:52;1.65;94.62
67054;SHT31;53960;51.826;5.850;2022-12-11T13:16:49;1.66;94.72
67054;SHT31;53960;51.826;5.850;2022-12-11T13:22:19;1.59;93.91
67054;SHT31;53960;51.826;5.850;2022-12-11T13:27:38;1.63;93.39
67054;SHT31;53960;51.826;5.850;2022-12-11T13:30:06;1.61;93.88
67054;SHT31;53960;51.826;5.850;2022-12-11T13:32:31;1.65;93.79
67054;SHT31;53960;51.826;5.850;2022-12-11T13:34:59;1.63;93.69
67054;SHT31;53960;51.826;5.850;2022-12-11T13:40:05;1.58;93.86
67054;SHT31;53960;51.826;5.850;2022-12-11T13:42:35;1.63;94.15
67054;SHT31;53960;51.826;5.850;2022-12-11T13:45:03;1.61;94.19
67054;SHT31;53960;51.826;5.850;2022-12-11T13:47:30;1.54;93.59
67054;SHT31;53960;51.826;5.850;2022-12-11T13:50:11;1.52;94.15
67054;SHT31;53960;51.826;5.850;2022-12-11T13:52:37;1.51;93.94
67054;SHT31;53960;51.826;5.850;2022-12-11T13:55:15;1.55;93.96
67054;SHT31;53960;51.826;5.850;2022-12-11T13:57:44;1.58;93.93
67054;SHT31;53960;51.826;5.850;2022-12-11T14:00:23;1.58;93.84
67054;SHT31;53960;51.826;5.850;2022-12-11T14:02:50;1.59;93.35
67054;SHT31;53960;51.826;5.850;2022-12-11T14:05:16;1.54;93.74
67054;SHT31;53960;51.826;5.850;2022-12-11T14:07:48;1.51;93.94
67054;SHT31;53960;51.826;5.850;2022-12-11T14:10:23;1.55;93.83
67054;SHT31;53960;51.826;5.850;2022-12-11T14:15:23;1.49;94.03
67054;SHT31;53960;51.826;5.850;2022-12-11T14:17:49;1.51;94.02
67054;SHT31;53960;51.826;5.850;2022-12-11T14:20:20;1.47;94.10
67054;SHT31;53960;51.826;5.850;2022-12-11T14:22:47;1.52;94.47
67054;SHT31;53960;51.826;5.850;2022-12-11T14:27:49;1.54;93.45
67054;SHT31;53960;51.826;5.850;2022-12-11T14:30:25;1.61;93.50
67054;SHT31;53960;51.826;5.850;2022-12-11T14:32:55;1.59;93.30
67054;SHT31;53960;51.826;5.850;2022-12-11T14:35:38;1.55;93.42
67054;SHT31;53960;51.826;5.850;2022-12-11T14:38:15;1.55;93.30
67054;SHT31;53960;51.826;5.850;2022-12-11T14:40:42;1.52;93.49
67054;SHT31;53960;51.826;5.850;2022-12-11T14:43:35;1.52;93.97
67054;SHT31;53960;51.826;5.850;2022-12-11T14:46:04;1.47;94.13
67054;SHT31;53960;51.826;5.850;2022-12-11T14:48:47;1.52;93.57
67054;SHT31;53960;51.826;5.850;2022-12-11T14:51:16;1.51;93.98
67054;SHT31;53960;51.826;5.850;2022-12-11T14:53:45;1.48;94.11
67054;SHT31;53960;51.826;5.850;2022-12-11T14:56:18;1.51;94.16
67054;SHT31;53960;51.826;5.850;2022-12-11T14:58:59;1.45;94.54
67054;SHT31;53960;51.826;5.850;2022-12-11T15:01:32;1.47;94.52
67054;SHT31;53960;51.826;5.850;2022-12-11T15:04:30;1.45;94.51
67054;SHT31;53960;51.826;5.850;2022-12-11T15:06:57;1.47;94.20
67054;SHT31;53960;51.826;5.850;2022-12-11T15:12:11;1.42;94.50
67054;SHT31;53960;51.826;5.850;2022-12-11T15:14:49;1.47;94.27
67054;SHT31;53960;51.826;5.850;2022-12-11T15:17:15;1.44;93.99
67054;SHT31;53960;51.826;5.850;2022-12-11T15:19:46;1.48;93.86
67054;SHT31;53960;51.826;5.850;2022-12-11T15:22:14;1.47;94.64
67054;SHT31;53960;51.826;5.850;2022-12-11T15:24:42;1.48;94.62
67054;SHT31;53960;51.826;5.850;2022-12-11T15:27:37;1.49;94.46
67054;SHT31;53960;51.826;5.850;2022-12-11T15:32:44;1.42;93.97
67054;SHT31;53960;51.826;5.850;2022-12-11T15:35:25;1.40;94.14
67054;SHT31;53960;51.826;5.850;2022-12-11T15:37:52;1.40;93.91
67054;SHT31;53960;51.826;5.850;2022-12-11T15:40:18;1.40;94.02
67054;SHT31;53960;51.826;5.850;2022-12-11T15:42:43;1.41;94.47
67054;SHT31;53960;51.826;5.850;2022-12-11T15:45:25;1.44;94.05
67054;SHT31;53960;51.826;5.850;2022-12-11T15:47:53;1.35;94.14
67054;SHT31;53960;51.826;5.850;2022-12-11T15:50:23;1.34;94.37
67054;SHT31;53960;51.826;5.850;2022-12-11T15:52:50;1.32;94.67
67054;SHT31;53960;51.826;5.850;2022-12-11T15:55:17;1.28;94.91
67054;SHT31;53960;51.826;5.850;2022-12-11T15:57:48;1.32;95.05
67054;SHT31;53960;51.826;5.850;2022-12-11T16:00:16;1.30;94.20
67054;SHT31;53960;51.826;5.850;2022-12-11T16:02:43;1.31;94.31
67054;SHT31;53960;51.826;5.850;2022-12-11T16:05:08;1.31;94.39
67054;SHT31;53960;51.826;5.850;2022-12-11T16:07:34;1.27;94.50
67054;SHT31;53960;51.826;5.850;2022-12-11T16:09:59;1.27;94.20
67054;SHT31;53960;51.826;5.850;2022-12-11T16:12:25;1.26;94.10
67054;SHT31;53960;51.826;5.850;2022-12-11T16:14:50;1.26;94.11
67054;SHT31;53960;51.826;5.850;2022-12-11T16:17:15;1.27;94.42
67054;SHT31;53960;51.826;5.850;2022-12-11T16:19:42;1.28;94.20
67054;SHT31;53960;51.826;5.850;2022-12-11T16:22:09;1.31;94.11
67054;SHT31;53960;51.826;5.850;2022-12-11T16:24:35;1.26;93.91
67054;SHT31;53960;51.826;5.850;2022-12-11T16:27:01;1.27;93.99
67054;SHT31;53960;51.826;5.850;2022-12-11T16:29:27;1.30;94.24
67054;SHT31;53960;51.826;5.850;2022-12-11T16:31:52;1.35;94.03
67054;SHT31;53960;51.826;5.850;2022-12-11T16:34:18;1.32;93.79
67054;SHT31;53960;51.826;5.850;2022-12-11T16:36:43;1.27;93.75
67054;SHT31;53960;51.826;5.850;2022-12-11T16:39:10;1.23;93.93
67054;SHT31;53960;51.826;5.850;2022-12-11T16:41:36;1.26;94.31
67054;SHT31;53960;51.826;5.850;2022-12-11T16:44:01;1.23;94.15
67054;SHT31;53960;51.826;5.850;2022-12-11T16:46:27;1.27;94.40
67054;SHT31;53960;51.826;5.850;2022-12-11T16:48:53;1.21;94.36
67054;SHT31;53960;51.826;5.850;2022-12-11T16:51:18;1.23;94.51
67054;SHT31;53960;51.826;5.850;2022-12-11T16:53:43;1.23;94.96
67054;SHT31;53960;51.826;5.850;2022-12-11T16:56:09;1.20;94.56
67054;SHT31;53960;51.826;5.850;2022-12-11T16:58:34;1.20;94.56
67054;SHT31;53960;51.826;5.850;2022-12-11T17:01:00;1.20;94.38
67054;SHT31;53960;51.826;5.850;2022-12-11T17:03:36;1.21;94.56